createdAt,value
2019-03-29T00:00:12.326Z,78.60
2019-03-29T00:02:43.264Z,78.40
2019-03-29T00:05:12.555Z,78.50
2019-03-29T00:07:42.004Z,78.50
2019-03-29T00:10:11.533Z,78.70
2019-03-29T00:12:40.973Z,79.10
2019-03-29T00:15:10.189Z,79.40
2019-03-29T00:17:39.442Z,79.70
2019-03-29T00:20:08.618Z,80.00
2019-03-29T00:22:37.847Z,80.40
2019-03-29T00:25:08.091Z,80.70
2019-03-29T00:27:37.250Z,81.00
2019-03-29T00:30:06.431Z,81.10
2019-03-29T00:32:35.578Z,81.10
2019-03-29T00:35:07.882Z,81.30
2019-03-29T00:37:37.193Z,81.40
2019-03-29T00:40:07.312Z,81.70
2019-03-29T00:42:36.496Z,81.90
2019-03-29T00:45:08.792Z,82.30
2019-03-29T00:47:37.949Z,82.60
2019-03-29T00:50:07.337Z,82.90
2019-03-29T00:52:36.628Z,83.20
2019-03-29T00:55:06.659Z,83.60
2019-03-29T00:57:35.846Z,83.70
2019-03-29T01:00:07.981Z,83.90
2019-03-29T01:02:37.130Z,83.90
2019-03-29T01:05:06.880Z,84.10
2019-03-29T01:07:36.027Z,84.20
2019-03-29T01:10:06.369Z,84.40
2019-03-29T01:12:35.576Z,84.70
2019-03-29T01:15:09.105Z,84.80
2019-03-29T01:17:38.718Z,85.10
2019-03-29T01:20:07.875Z,85.20
2019-03-29T01:22:37.019Z,85.50
2019-03-29T01:25:08.086Z,85.90
2019-03-29T01:27:37.423Z,86.10
2019-03-29T01:30:07.840Z,86.60
2019-03-29T01:32:36.982Z,87.20
2019-03-29T01:35:07.009Z,87.50
2019-03-29T01:37:36.144Z,87.30
2019-03-29T01:40:05.582Z,87.40
2019-03-29T01:42:34.734Z,87.60
2019-03-29T01:45:06.146Z,87.60
2019-03-29T01:47:35.302Z,88.20
2019-03-29T01:50:06.008Z,87.60
2019-03-29T01:52:35.230Z,87.70
2019-03-29T01:55:06.188Z,87.80
2019-03-29T01:57:35.525Z,87.80
2019-03-29T02:00:05.253Z,87.80
2019-03-29T02:02:34.465Z,88.70
2019-03-29T02:05:07.614Z,88.20
2019-03-29T02:07:38.080Z,88.40
2019-03-29T02:10:08.374Z,88.80
2019-03-29T02:12:37.522Z,88.80
2019-03-29T02:15:09.924Z,89.10
2019-03-29T02:17:39.254Z,89.30
2019-03-29T02:20:08.419Z,89.50
2019-03-29T02:22:38.742Z,89.80
2019-03-29T02:25:08.008Z,89.90
2019-03-29T02:27:38.730Z,90.00
2019-03-29T02:30:08.045Z,90.00
2019-03-29T02:32:37.217Z,90.10
2019-03-29T02:35:06.646Z,90.10
2019-03-29T02:37:35.809Z,90.20
2019-03-29T02:40:06.476Z,90.20
2019-03-29T02:42:35.630Z,90.30
2019-03-29T02:45:05.544Z,90.30
2019-03-29T02:47:34.849Z,90.30
2019-03-29T02:50:05.652Z,90.50
2019-03-29T02:52:34.810Z,90.80
2019-03-29T02:55:06.718Z,90.40
2019-03-29T02:57:35.946Z,90.50
2019-03-29T03:00:09.591Z,90.50
2019-03-29T03:02:38.831Z,90.50
2019-03-29T03:05:09.213Z,90.50
2019-03-29T03:07:38.384Z,90.40
2019-03-29T03:10:09.158Z,90.40
2019-03-29T03:12:38.414Z,90.50
2019-03-29T03:15:07.626Z,90.50
2019-03-29T03:17:37.341Z,90.70
2019-03-29T03:20:15.408Z,90.80
2019-03-29T03:22:43.563Z,91.00
2019-03-29T03:25:12.893Z,91.10
2019-03-29T03:27:42.208Z,91.10
2019-03-29T03:30:12.080Z,91.20
2019-03-29T03:32:41.325Z,91.10
2019-03-29T03:35:10.810Z,91.10
2019-03-29T03:37:40.013Z,91.10
2019-03-29T03:40:09.170Z,91.00
2019-03-29T03:42:38.422Z,90.90
2019-03-29T03:45:08.041Z,91.00
2019-03-29T03:47:38.723Z,91.10
2019-03-29T03:50:09.541Z,91.10
2019-03-29T03:52:38.766Z,91.10
2019-03-29T03:55:07.940Z,91.20
2019-03-29T03:57:38.513Z,91.30
2019-03-29T04:00:08.967Z,91.30
2019-03-29T04:02:38.134Z,91.30
2019-03-29T04:05:07.320Z,91.30
2019-03-29T04:07:36.540Z,91.30
2019-03-29T04:10:08.650Z,91.50
2019-03-29T04:12:37.831Z,91.50
2019-03-29T04:15:07.034Z,91.60
2019-03-29T04:17:36.193Z,91.70
2019-03-29T04:20:06.460Z,91.70
2019-03-29T04:22:35.618Z,91.70
2019-03-29T04:25:06.426Z,91.60
2019-03-29T04:27:35.613Z,91.80
2019-03-29T04:30:05.792Z,92.00
2019-03-29T04:32:34.966Z,92.00
2019-03-29T04:35:04.376Z,91.90
2019-03-29T04:37:34.657Z,92.10
2019-03-29T04:40:07.979Z,91.80
2019-03-29T04:42:35.513Z,91.70
2019-03-29T04:45:05.916Z,91.70
2019-03-29T04:47:35.092Z,91.70
2019-03-29T04:50:06.178Z,91.70
2019-03-29T04:52:35.342Z,91.70
2019-03-29T04:55:05.727Z,91.70
2019-03-29T04:57:34.902Z,91.90
2019-03-29T05:00:07.440Z,91.90
2019-03-29T05:02:36.602Z,92.00
2019-03-29T05:05:06.326Z,92.10
2019-03-29T05:07:36.981Z,92.10
2019-03-29T05:10:20.580Z,92.00
2019-03-29T05:12:38.940Z,91.80
2019-03-29T05:15:08.083Z,91.80
2019-03-29T05:17:37.260Z,91.80
2019-03-29T05:20:06.878Z,91.90
2019-03-29T05:22:36.049Z,92.00
2019-03-29T05:25:05.671Z,92.00
2019-03-29T05:27:34.831Z,91.80
2019-03-29T05:30:05.318Z,91.70
2019-03-29T05:32:34.490Z,91.50
2019-03-29T05:35:05.078Z,91.40
2019-03-29T05:37:34.257Z,91.30
2019-03-29T05:40:04.165Z,91.30
2019-03-29T05:42:33.407Z,91.30
2019-03-29T05:45:02.902Z,91.20
2019-03-29T05:47:32.156Z,91.00
2019-03-29T05:50:01.305Z,90.30
2019-03-29T05:52:30.461Z,89.70
2019-03-29T05:54:59.633Z,89.00
2019-03-29T05:57:28.790Z,87.90
2019-03-29T05:59:57.967Z,87.50
2019-03-29T06:02:28.063Z,87.90
2019-03-29T06:04:57.333Z,88.50
2019-03-29T06:07:26.561Z,88.90
2019-03-29T06:09:55.811Z,89.30
2019-03-29T06:12:24.993Z,89.70
2019-03-29T06:14:54.178Z,89.90
2019-03-29T06:17:23.333Z,89.90
2019-03-29T06:19:52.505Z,89.60
2019-03-29T06:22:21.676Z,90.00
2019-03-29T06:24:50.867Z,89.60
2019-03-29T06:27:20.047Z,89.40
2019-03-29T06:29:49.224Z,89.30
2019-03-29T06:32:18.412Z,89.00
2019-03-29T06:34:47.737Z,88.00
2019-03-29T06:37:17.581Z,87.90
2019-03-29T06:39:47.753Z,88.00
2019-03-29T06:42:16.937Z,87.10
2019-03-29T06:44:46.200Z,86.70
2019-03-29T06:47:15.436Z,85.60
2019-03-29T06:49:44.685Z,84.60
2019-03-29T06:52:13.922Z,83.90
2019-03-29T06:54:43.155Z,83.50
2019-03-29T06:57:12.318Z,82.30
2019-03-29T06:59:41.507Z,81.70
2019-03-29T07:02:10.747Z,82.30
2019-03-29T07:04:39.930Z,83.20
2019-03-29T07:07:09.143Z,82.00
2019-03-29T07:09:38.413Z,82.00
2019-03-29T07:12:07.640Z,80.50
2019-03-29T07:14:36.883Z,80.20
2019-03-29T07:17:06.168Z,80.20
2019-03-29T07:19:37.063Z,79.80
2019-03-29T07:22:06.222Z,80.10
2019-03-29T07:24:35.431Z,79.90
2019-03-29T07:27:04.630Z,79.10
2019-03-29T07:29:33.824Z,79.40
2019-03-29T07:32:04.300Z,79.50
2019-03-29T07:34:33.584Z,79.60
2019-03-29T07:37:05.707Z,79.00
2019-03-29T07:39:33.614Z,78.30
2019-03-29T07:42:02.774Z,77.00
2019-03-29T07:44:31.944Z,76.50
2019-03-29T07:47:01.099Z,77.00
2019-03-29T07:49:30.298Z,76.60
2019-03-29T07:51:59.513Z,75.60
2019-03-29T07:54:28.789Z,74.40
2019-03-29T07:56:58.012Z,70.10
2019-03-29T07:59:27.523Z,64.50
2019-03-29T08:01:56.728Z,59.30
2019-03-29T08:04:25.995Z,57.70
2019-03-29T08:06:55.178Z,56.50
2019-03-29T08:09:24.362Z,52.80
2019-03-29T08:11:55.218Z,51.00
2019-03-29T08:14:24.712Z,49.80
2019-03-29T08:16:53.958Z,46.70
2019-03-29T08:19:23.146Z,46.50
2019-03-29T08:21:52.406Z,45.50
2019-03-29T08:24:21.593Z,45.60
2019-03-29T08:26:50.756Z,46.00
2019-03-29T08:29:19.980Z,47.10
2019-03-29T08:31:49.166Z,49.30
2019-03-29T08:34:18.330Z,53.30
2019-03-29T08:36:47.511Z,53.20
2019-03-29T08:39:27.284Z,51.40
2019-03-29T08:41:59.441Z,50.50
2019-03-29T08:44:18.422Z,48.50
2019-03-29T08:46:47.645Z,46.60
2019-03-29T08:49:17.256Z,44.80
2019-03-29T08:51:46.570Z,45.50
2019-03-29T08:54:15.759Z,45.90
2019-03-29T08:56:45.025Z,46.40
2019-03-29T08:59:17.256Z,45.50
2019-03-29T09:01:45.151Z,44.20
2019-03-29T09:04:14.318Z,42.30
2019-03-29T09:06:53.150Z,39.50
2019-03-29T09:09:14.370Z,40.00
2019-03-29T09:11:43.557Z,41.60
2019-03-29T09:14:12.794Z,42.20
2019-03-29T09:16:41.979Z,43.00
2019-03-29T09:19:11.178Z,43.20
2019-03-29T09:21:40.701Z,41.30
2019-03-29T09:24:21.268Z,40.50
2019-03-29T09:26:42.075Z,40.50
2019-03-29T09:29:11.245Z,39.00
2019-03-29T09:31:40.462Z,38.00
2019-03-29T09:34:09.616Z,37.00
2019-03-29T09:36:38.794Z,36.80
2019-03-29T09:39:07.947Z,35.00
2019-03-29T09:41:37.154Z,34.00
2019-03-29T09:44:06.389Z,32.50
2019-03-29T09:46:35.563Z,34.10
2019-03-29T09:49:08.189Z,36.40
2019-03-29T09:51:36.684Z,39.50
2019-03-29T09:54:05.863Z,39.20
2019-03-29T09:56:39.040Z,37.00
2019-03-29T09:59:05.915Z,34.30
2019-03-29T10:01:35.237Z,34.50
2019-03-29T10:04:04.637Z,34.10
2019-03-29T10:06:33.865Z,34.50
2019-03-29T10:09:05.525Z,34.60
2019-03-29T10:11:34.741Z,34.50
2019-03-29T10:14:04.136Z,34.60
2019-03-29T10:16:33.348Z,32.60
2019-03-29T10:19:02.614Z,30.50
2019-03-29T10:21:34.100Z,28.60
2019-03-29T10:24:02.914Z,29.00
2019-03-29T10:26:32.278Z,29.40
2019-03-29T10:29:01.458Z,29.60
2019-03-29T10:31:32.871Z,30.50
2019-03-29T10:34:02.217Z,30.80
2019-03-29T10:36:31.395Z,30.00
2019-03-29T10:39:00.575Z,28.10
2019-03-29T10:41:29.980Z,26.90
2019-03-29T10:43:59.234Z,26.70
2019-03-29T10:46:28.394Z,26.30
2019-03-29T10:48:57.644Z,26.40
2019-03-29T10:51:26.808Z,25.90
2019-03-29T10:53:55.979Z,25.60
2019-03-29T10:56:33.938Z,25.40
2019-03-29T10:58:56.052Z,25.80
2019-03-29T11:01:25.206Z,25.70
2019-03-29T11:03:54.455Z,25.40
2019-03-29T11:06:23.612Z,26.20
2019-03-29T11:08:52.783Z,28.10
2019-03-29T11:11:21.968Z,29.20
2019-03-29T11:13:51.156Z,29.30
2019-03-29T11:16:20.335Z,26.50
2019-03-29T11:18:49.563Z,25.10
2019-03-29T11:21:18.791Z,25.60
2019-03-29T11:23:48.932Z,25.00
2019-03-29T11:26:18.317Z,24.80
2019-03-29T11:28:47.509Z,23.40
2019-03-29T11:31:16.800Z,23.80
2019-03-29T11:33:46.034Z,25.50
2019-03-29T11:36:15.396Z,25.60
2019-03-29T11:38:44.689Z,24.80
2019-03-29T11:41:13.863Z,24.60
2019-03-29T11:43:43.113Z,24.20
2019-03-29T11:46:12.348Z,23.50
2019-03-29T11:48:41.532Z,23.50
2019-03-29T11:51:19.107Z,23.60
2019-03-29T11:53:41.959Z,24.20
2019-03-29T11:56:11.155Z,24.50
2019-03-29T11:58:40.441Z,23.60
2019-03-29T12:01:09.659Z,21.90
2019-03-29T12:03:39.506Z,21.60
2019-03-29T12:06:08.816Z,22.30
2019-03-29T12:08:38.145Z,21.60
2019-03-29T12:11:07.371Z,21.10
2019-03-29T12:13:41.177Z,20.60
2019-03-29T12:16:07.781Z,20.10
2019-03-29T12:18:36.930Z,20.70
2019-03-29T12:21:06.116Z,21.50
2019-03-29T12:23:35.293Z,22.20
2019-03-29T12:26:04.551Z,21.60
2019-03-29T12:28:33.867Z,20.70
2019-03-29T12:31:03.119Z,20.60
2019-03-29T12:33:32.388Z,22.20
2019-03-29T12:36:01.687Z,23.20
2019-03-29T12:38:30.841Z,22.20
2019-03-29T12:41:00.064Z,21.00
2019-03-29T12:43:29.300Z,21.90
2019-03-29T12:45:58.535Z,23.40
2019-03-29T12:48:27.708Z,23.70
2019-03-29T12:50:56.967Z,22.60
2019-03-29T12:53:26.201Z,20.80
2019-03-29T12:55:55.382Z,20.20
2019-03-29T12:58:24.705Z,20.30
2019-03-29T13:00:54.071Z,21.00
2019-03-29T13:03:23.280Z,20.90
2019-03-29T13:05:52.547Z,21.70
2019-03-29T13:08:21.720Z,21.50
2019-03-29T13:10:51.566Z,22.50
2019-03-29T13:13:20.754Z,21.30
2019-03-29T13:15:49.927Z,20.40
2019-03-29T13:18:19.096Z,20.50
2019-03-29T13:20:48.306Z,20.70
2019-03-29T13:23:17.493Z,22.40
2019-03-29T13:25:46.680Z,21.40
2019-03-29T13:28:15.852Z,20.70
2019-03-29T13:30:46.146Z,20.00
2019-03-29T13:33:15.361Z,18.90
2019-03-29T13:35:44.780Z,19.80
2019-03-29T13:38:15.055Z,20.50
2019-03-29T13:40:44.220Z,20.40
2019-03-29T13:43:14.504Z,19.90
2019-03-29T13:45:43.686Z,19.90
2019-03-29T13:48:14.813Z,20.20
2019-03-29T13:50:44.122Z,20.30
2019-03-29T13:53:13.464Z,21.10
2019-03-29T13:55:42.599Z,20.50
2019-03-29T13:58:11.772Z,20.20
2019-03-29T14:00:40.989Z,21.10
2019-03-29T14:03:10.229Z,22.70
2019-03-29T14:05:39.490Z,22.40
2019-03-29T14:08:08.732Z,22.60
2019-03-29T14:10:37.892Z,22.50
2019-03-29T14:13:07.189Z,23.80
2019-03-29T14:15:36.366Z,23.90
2019-03-29T14:18:05.614Z,22.80
2019-03-29T14:20:34.847Z,22.50
2019-03-29T14:23:04.017Z,22.20
2019-03-29T14:25:33.193Z,22.30
2019-03-29T14:28:02.387Z,22.10
2019-03-29T14:30:31.557Z,22.50
2019-03-29T14:33:00.804Z,22.30
2019-03-29T14:35:29.986Z,22.40
2019-03-29T14:37:59.174Z,22.50
2019-03-29T14:40:28.449Z,23.90
2019-03-29T14:42:57.788Z,24.20
2019-03-29T14:45:26.985Z,24.30
2019-03-29T14:47:56.221Z,25.60
2019-03-29T14:50:25.404Z,28.00
2019-03-29T14:52:54.650Z,29.90
2019-03-29T14:55:23.802Z,29.40
2019-03-29T14:57:52.980Z,28.90
2019-03-29T15:00:42.831Z,28.90
2019-03-29T15:03:12.184Z,30.70
2019-03-29T15:05:42.426Z,34.30
2019-03-29T15:08:11.677Z,35.20
2019-03-29T15:10:40.931Z,36.70
2019-03-29T15:13:10.101Z,38.10
2019-03-29T15:15:39.267Z,38.70
2019-03-29T15:18:08.473Z,38.70
2019-03-29T15:20:51.924Z,39.50
2019-03-29T15:23:08.560Z,40.00
2019-03-29T15:25:40.434Z,40.00
2019-03-29T15:28:08.715Z,39.80
2019-03-29T15:30:39.659Z,40.20
2019-03-29T15:33:08.964Z,39.80
2019-03-29T15:35:38.209Z,40.20
2019-03-29T15:38:07.461Z,40.10
2019-03-29T15:40:36.634Z,40.00
2019-03-29T15:43:05.883Z,41.30
2019-03-29T15:45:35.076Z,41.40
2019-03-29T15:48:04.252Z,41.10
2019-03-29T15:50:33.467Z,41.60
2019-03-29T15:53:02.757Z,42.10
2019-03-29T15:55:33.187Z,42.50
2019-03-29T15:58:02.351Z,42.20
2019-03-29T16:00:31.508Z,42.60
2019-03-29T16:03:00.834Z,42.60
2019-03-29T16:05:29.990Z,43.00
2019-03-29T16:07:59.317Z,43.10
2019-03-29T16:10:28.557Z,43.30
2019-03-29T16:12:57.748Z,43.30
2019-03-29T16:15:34.216Z,43.60
2019-03-29T16:17:57.865Z,43.60
2019-03-29T16:20:27.198Z,43.70
2019-03-29T16:22:56.382Z,43.80
2019-03-29T16:25:25.542Z,44.40
2019-03-29T16:27:54.765Z,45.20
2019-03-29T16:30:23.941Z,45.30
2019-03-29T16:32:53.152Z,44.80
2019-03-29T16:35:22.364Z,45.10
2019-03-29T16:37:57.491Z,45.40
2019-03-29T16:40:22.539Z,45.30
2019-03-29T16:42:51.764Z,45.30
2019-03-29T16:45:20.998Z,45.60
2019-03-29T16:47:50.201Z,46.00
2019-03-29T16:50:19.438Z,46.60
2019-03-29T16:52:48.634Z,46.20
2019-03-29T16:55:17.938Z,46.50
2019-03-29T16:57:47.250Z,47.00
2019-03-29T17:00:16.775Z,47.40
2019-03-29T17:02:45.934Z,47.80
2019-03-29T17:05:15.172Z,48.10
2019-03-29T17:07:44.339Z,48.20
2019-03-29T17:10:13.549Z,48.30
2019-03-29T17:12:42.890Z,48.50
2019-03-29T17:15:12.097Z,48.90
2019-03-29T17:17:41.339Z,48.80
2019-03-29T17:20:10.647Z,48.70
2019-03-29T17:22:43.110Z,49.20
2019-03-29T17:25:10.698Z,49.30
2019-03-29T17:27:40.033Z,49.50
2019-03-29T17:30:09.674Z,49.70
2019-03-29T17:32:38.892Z,49.90
2019-03-29T17:35:08.111Z,50.20
2019-03-29T17:37:37.328Z,50.40
2019-03-29T17:40:07.688Z,50.60
2019-03-29T17:42:37.001Z,50.90
2019-03-29T17:45:09.354Z,51.10
2019-03-29T17:47:39.677Z,51.30
2019-03-29T17:50:08.848Z,51.50
2019-03-29T17:52:39.665Z,51.60
2019-03-29T17:55:08.878Z,52.00
2019-03-29T17:57:38.108Z,52.30
2019-03-29T18:00:08.231Z,52.50
2019-03-29T18:02:37.575Z,52.70
2019-03-29T18:05:07.259Z,53.00
2019-03-29T18:07:43.156Z,53.10
2019-03-29T18:10:14.245Z,53.30
2019-03-29T18:12:47.322Z,53.70
2019-03-29T18:15:17.077Z,54.00
2019-03-29T18:17:46.507Z,54.40
2019-03-29T18:20:16.070Z,54.70
2019-03-29T18:22:46.369Z,55.10
2019-03-29T18:25:17.614Z,55.40
2019-03-29T18:27:47.578Z,55.60
2019-03-29T18:30:20.196Z,55.60
2019-03-29T18:32:50.913Z,55.90
2019-03-29T18:35:20.799Z,56.00
2019-03-29T18:37:50.477Z,55.90
2019-03-29T18:40:27.330Z,56.40
2019-03-29T18:42:57.603Z,56.40
2019-03-29T18:45:26.789Z,56.70
2019-03-29T18:47:55.973Z,56.60
2019-03-29T18:50:25.129Z,56.70
2019-03-29T18:52:54.387Z,56.70
2019-03-29T18:55:23.574Z,56.90
2019-03-29T18:57:52.812Z,57.00
2019-03-29T19:00:27.935Z,56.90
2019-03-29T19:02:57.174Z,57.20
2019-03-29T19:05:26.928Z,57.60
2019-03-29T19:07:56.200Z,57.30
2019-03-29T19:10:25.477Z,58.00
2019-03-29T19:12:54.846Z,57.40
2019-03-29T19:15:24.405Z,57.40
2019-03-29T19:17:53.722Z,57.70
2019-03-29T19:20:27.888Z,57.60
2019-03-29T19:22:53.844Z,57.80
2019-03-29T19:25:23.174Z,57.90
2019-03-29T19:27:52.482Z,58.00
2019-03-29T19:30:21.756Z,58.10
2019-03-29T19:32:50.963Z,58.30
2019-03-29T19:35:20.222Z,58.40
2019-03-29T19:37:49.401Z,58.60
2019-03-29T19:40:18.671Z,58.70
2019-03-29T19:42:47.874Z,58.70
2019-03-29T19:45:17.901Z,58.80
2019-03-29T19:47:47.228Z,58.90
2019-03-29T19:50:16.506Z,58.90
2019-03-29T19:52:45.796Z,58.70
2019-03-29T19:55:15.347Z,58.80
2019-03-29T19:57:47.424Z,58.90
2019-03-29T20:00:17.378Z,59.00
2019-03-29T20:02:46.630Z,59.20
2019-03-29T20:05:28.446Z,59.40
2019-03-29T20:07:57.690Z,59.60
2019-03-29T20:10:26.958Z,59.80
2019-03-29T20:12:56.208Z,59.90
2019-03-29T20:15:26.513Z,60.40
2019-03-29T20:17:57.597Z,61.00
2019-03-29T20:20:26.945Z,61.40
2019-03-29T20:22:56.499Z,61.50
2019-03-29T20:25:25.777Z,61.40
2019-03-29T20:27:58.137Z,61.40
2019-03-29T20:30:26.323Z,61.70
2019-03-29T20:32:56.817Z,62.00
2019-03-29T20:35:26.099Z,62.30
2019-03-29T20:37:55.453Z,63.10
2019-03-29T20:40:24.637Z,62.60
2019-03-29T20:42:56.219Z,62.90
2019-03-29T20:45:25.484Z,62.90
2019-03-29T20:47:55.414Z,63.10
2019-03-29T20:50:24.671Z,63.20
2019-03-29T20:52:55.541Z,63.30
2019-03-29T20:55:24.779Z,63.70
2019-03-29T20:57:54.007Z,64.00
2019-03-29T21:00:23.336Z,64.30
2019-03-29T21:02:52.550Z,64.70
2019-03-29T21:05:21.743Z,65.80
2019-03-29T21:07:54.649Z,65.70
2019-03-29T21:10:22.064Z,66.50
2019-03-29T21:12:51.409Z,66.70
2019-03-29T21:15:21.814Z,67.00
2019-03-29T21:17:57.103Z,66.80
2019-03-29T21:20:22.033Z,66.70
2019-03-29T21:22:51.294Z,66.70
2019-03-29T21:25:20.564Z,66.80
2019-03-29T21:27:49.733Z,67.20
2019-03-29T21:30:18.996Z,67.50
2019-03-29T21:32:48.410Z,68.30
2019-03-29T21:35:17.672Z,69.40
2019-03-29T21:37:46.852Z,69.30
2019-03-29T21:40:16.483Z,69.80
2019-03-29T21:42:46.835Z,70.10
2019-03-29T21:45:28.142Z,70.40
2019-03-29T21:48:01.506Z,70.40
2019-03-29T21:50:17.898Z,70.50
2019-03-29T21:52:47.470Z,70.30
2019-03-29T21:55:16.793Z,70.20
2019-03-29T21:57:45.955Z,70.40
2019-03-29T22:00:15.189Z,70.40
2019-03-29T22:02:44.419Z,71.90
2019-03-29T22:05:15.238Z,72.00
2019-03-29T22:07:44.448Z,72.30
2019-03-29T22:10:13.639Z,72.80
2019-03-29T22:12:43.382Z,73.00
2019-03-29T22:15:13.468Z,73.20
2019-03-29T22:17:42.687Z,73.60
2019-03-29T22:20:11.908Z,74.10
2019-03-29T22:22:41.135Z,74.20
2019-03-29T22:25:10.339Z,74.90
2019-03-29T22:27:39.523Z,75.40
2019-03-29T22:30:09.407Z,75.30
2019-03-29T22:32:38.621Z,75.10
2019-03-29T22:35:07.874Z,74.90
2019-03-29T22:37:38.160Z,75.90
2019-03-29T22:40:08.371Z,75.70
2019-03-29T22:42:37.552Z,77.10
2019-03-29T22:45:07.914Z,76.60
2019-03-29T22:47:38.169Z,76.60
2019-03-29T22:50:08.128Z,76.80
2019-03-29T22:52:37.361Z,76.70
2019-03-29T22:55:06.999Z,77.00
2019-03-29T22:57:36.286Z,77.30
2019-03-29T23:00:14.772Z,77.90
2019-03-29T23:02:45.704Z,78.60
2019-03-29T23:05:14.864Z,78.80
2019-03-29T23:07:44.105Z,78.60
2019-03-29T23:10:13.278Z,78.80
2019-03-29T23:12:42.523Z,78.80
2019-03-29T23:15:11.712Z,79.10
2019-03-29T23:17:41.005Z,79.00
2019-03-29T23:20:10.203Z,79.20
2019-03-29T23:22:39.421Z,79.50
2019-03-29T23:25:08.607Z,80.00
2019-03-29T23:27:37.757Z,80.80
2019-03-29T23:30:07.013Z,80.70
2019-03-29T23:32:36.195Z,80.60
2019-03-29T23:35:06.722Z,80.90
2019-03-29T23:37:35.883Z,80.90
2019-03-29T23:40:06.530Z,81.20
2019-03-29T23:42:35.705Z,81.00
2019-03-29T23:45:07.604Z,81.00
2019-03-29T23:47:36.749Z,81.00
2019-03-29T23:50:05.915Z,81.00
2019-03-29T23:52:35.142Z,81.10
2019-03-29T23:55:06.015Z,80.80
2019-03-29T23:57:35.158Z,80.40
